LGA weather

La Guardia Airport
New York, New York, United States

Public forecast

Using degrees Fahrenheit for public forecast. Weather courtesy of forecast.io.

METAR (pilot weather report)

Retrieved 2017/03/29 08:51 UTC (23 minutes ago):

KLGA 290851Z 35013KT 10SM OVC023 09/04 A2999

TAF (pilot weather forecast)

Retrieved 2017/03/29 06:30 UTC (3 hours ago):

TAF KLGA 290524Z 2906/3006 33007KT P6SM SCT015 BKN025 TEMPO 2906/2908 BKN015 FM290800 35010KT P6SM SCT025 BKN045 FM291200 35012G18KT P6SM FEW035 SCT050 FM291500 34015G21KT P6SM SCT040 SCT250 FM292300 35012G18KT P6SM FEW250 FM300200 35012KT P6SM FEW250